Time;durP1;ratioP1;P1;durP2;ratioP2;P2;SDS_P1;SDS_P2;PMS_P1;PMS_P2;Temp;Humidity;BMP_temperature;BMP_pressure;BME280_temperature;BME280_humidity;BME280_pressure;Samples;Min_cycle;Max_cycle;Signal;HPM_P1;HPM_P2
2023/09/06 00:02:16;;;;;;;15.80;4.82;;;;;;;19.03;100.00;101693.78;5073273;28;20024;-64
2023/09/06 00:04:41;;;;;;;17.30;5.13;;;;;;;19.05;100.00;101701.84;5072226;28;20025;-69
2023/09/06 00:07:07;;;;;;;16.60;5.20;;;;;;;18.92;100.00;101687.75;5071897;28;20033;-68
2023/09/06 00:09:32;;;;;;;15.50;4.90;;;;;;;18.87;100.00;101701.22;5073502;28;20490;-69
2023/09/06 00:11:58;;;;;;;16.40;5.20;;;;;;;18.83;100.00;101683.41;5073120;28;20033;-69
2023/09/06 00:14:23;;;;;;;16.38;4.95;;;;;;;18.84;100.00;101684.28;5073184;28;20024;-69
2023/09/06 00:16:48;;;;;;;16.08;5.10;;;;;;;18.74;100.00;101689.81;5073094;28;20418;-69
2023/09/06 00:19:17;;;;;;;15.23;5.10;;;;;;;18.72;100.00;101683.56;5073190;28;20028;-68
2023/09/06 00:21:43;;;;;;;14.70;5.00;;;;;;;18.58;100.00;101688.25;5072932;28;20029;-69
2023/09/06 00:24:12;;;;;;;14.75;4.90;;;;;;;18.63;100.00;101686.41;5072937;28;20070;-69
2023/09/06 00:26:39;;;;;;;14.95;4.90;;;;;;;18.64;100.00;101678.34;5073065;28;20086;-69
2023/09/06 00:29:06;;;;;;;20.10;5.20;;;;;;;18.58;100.00;101674.88;5072873;28;20044;-69
2023/09/06 00:31:31;;;;;;;15.27;4.97;;;;;;;18.58;100.00;101677.56;5072956;28;20074;-69
2023/09/06 00:33:57;;;;;;;17.65;5.20;;;;;;;18.59;100.00;101680.19;5073064;28;20487;-69
2023/09/06 00:36:22;;;;;;;15.30;5.15;;;;;;;18.50;100.00;101679.47;5072758;28;20056;-69
2023/09/06 00:38:47;;;;;;;16.15;5.20;;;;;;;18.57;100.00;101681.16;5073076;28;20025;-69
2023/09/06 00:41:13;;;;;;;16.45;5.40;;;;;;;18.61;100.00;101678.41;5072768;28;20132;-69
2023/09/06 00:43:38;;;;;;;17.67;5.13;;;;;;;18.50;100.00;101690.19;5072691;28;20048;-69
2023/09/06 00:46:07;;;;;;;15.52;5.50;;;;;;;18.54;100.00;101691.91;5072667;28;20039;-68
2023/09/06 00:48:33;;;;;;;17.55;5.13;;;;;;;18.55;100.00;101694.56;5073134;28;20490;-64
2023/09/06 00:50:58;;;;;;;16.85;5.40;;;;;;;18.54;100.00;101686.56;5072759;28;20123;-61
2023/09/06 00:53:26;;;;;;;15.70;5.28;;;;;;;18.61;100.00;101688.22;5072740;28;20524;-63
2023/09/06 00:55:51;;;;;;;15.00;5.32;;;;;;;18.60;100.00;101686.47;5068712;28;20025;-70
2023/09/06 00:58:19;;;;;;;16.50;5.30;;;;;;;18.58;100.00;101688.25;5072591;28;20123;-64
2023/09/06 01:00:45;;;;;;;15.88;5.10;;;;;;;18.55;100.00;101686.53;5072562;28;20032;-67
2023/09/06 01:03:11;;;;;;;17.33;5.70;;;;;;;18.49;100.00;101689.28;5072706;28;20029;-65
2023/09/06 01:05:46;;;;;;;14.80;5.25;;;;;;;18.56;100.00;101690.09;5072557;28;20024;-64
2023/09/06 01:08:18;;;;;;;15.43;5.10;;;;;;;18.60;100.00;101699.84;5076045;28;20021;-70
2023/09/06 01:10:43;;;;;;;16.08;5.03;;;;;;;18.61;100.00;101690.88;5076773;28;20490;-65
2023/09/06 01:13:09;;;;;;;14.27;5.03;;;;;;;18.47;100.00;101693.78;5076484;28;20111;-65
2023/09/06 01:15:35;;;;;;;15.93;5.40;;;;;;;18.43;100.00;101689.38;5076798;28;20103;-64
2023/09/06 01:18:04;;;;;;;16.20;5.30;;;;;;;18.42;100.00;101696.53;5075430;28;20028;-62
2023/09/06 01:20:52;;;;;;;16.27;5.45;;;;;;;18.29;100.00;101692.28;5075258;28;20100;-68
2023/09/06 01:23:34;;;;;;;16.13;5.20;;;;;;;18.19;100.00;101695.97;5076523;28;20036;-65
2023/09/06 01:26:01;;;;;;;15.40;5.00;;;;;;;18.15;100.00;101702.28;5073503;28;20025;-67
2023/09/06 01:28:27;;;;;;;16.58;5.20;;;;;;;18.11;100.00;101688.06;5076273;28;20036;-64
2023/09/06 01:30:59;;;;;;;16.10;5.22;;;;;;;18.08;100.00;101694.31;5072773;28;20037;-60
2023/09/06 01:33:25;;;;;;;17.13;5.07;;;;;;;18.02;100.00;101699.75;5072749;28;20044;-64
2023/09/06 01:35:51;;;;;;;15.88;5.18;;;;;;;17.89;100.00;101700.81;5076155;28;20028;-64
2023/09/06 01:38:16;;;;;;;16.77;5.05;;;;;;;17.73;100.00;101703.66;5076166;28;20474;-63
2023/09/06 01:40:45;;;;;;;16.27;5.38;;;;;;;17.68;100.00;101705.50;5076017;28;20398;-63
2023/09/06 01:43:11;;;;;;;15.30;5.15;;;;;;;17.63;100.00;101706.47;5076038;28;20040;-61
2023/09/06 01:45:38;;;;;;;14.88;5.22;;;;;;;17.60;100.00;101702.94;5075950;28;20039;-63
2023/09/06 01:48:04;;;;;;;15.13;5.25;;;;;;;17.55;100.00;101704.75;5076072;28;20028;-62
2023/09/06 01:50:29;;;;;;;15.50;5.47;;;;;;;17.52;100.00;101706.59;5075751;28;20024;-64
2023/09/06 01:52:57;;;;;;;16.77;5.63;;;;;;;17.50;100.00;101705.72;5076269;28;20174;-69
2023/09/06 01:55:22;;;;;;;16.60;5.38;;;;;;;17.57;100.00;101710.09;5072001;28;20115;-64
2023/09/06 01:57:48;;;;;;;17.73;5.68;;;;;;;17.45;100.00;101707.56;5075615;28;20116;-62
2023/09/06 02:00:19;;;;;;;15.82;5.20;;;;;;;17.33;100.00;101705.88;5074610;28;20046;-64
2023/09/06 02:02:46;;;;;;;15.98;5.45;;;;;;;17.31;100.00;101705.00;5076023;28;20032;-68
2023/09/06 02:05:11;;;;;;;17.42;5.10;;;;;;;17.24;100.00;101704.19;5075768;28;20024;-68
2023/09/06 02:07:37;;;;;;;17.23;4.88;;;;;;;17.13;100.00;101704.28;5075566;28;20467;-68
2023/09/06 02:10:03;;;;;;;16.58;5.45;;;;;;;17.09;100.00;101707.88;5075824;28;20028;-69
2023/09/06 02:12:29;;;;;;;16.65;5.50;;;;;;;17.07;100.00;101707.91;5075650;28;20028;-68
2023/09/06 02:14:56;;;;;;;16.67;5.40;;;;;;;16.97;100.00;101697.31;5075908;28;20036;-68
2023/09/06 02:17:23;;;;;;;16.58;5.88;;;;;;;16.84;100.00;101705.38;5074643;28;20051;-69
2023/09/06 02:19:48;;;;;;;15.77;5.18;;;;;;;16.88;100.00;101700.97;5074560;28;20029;-69
2023/09/06 02:22:14;;;;;;;18.88;5.97;;;;;;;16.82;100.00;101706.28;5075398;28;20395;-66
2023/09/06 02:24:39;;;;;;;18.77;6.00;;;;;;;16.65;100.00;101714.44;5075464;28;20399;-68
2023/09/06 02:27:05;;;;;;;16.95;5.78;;;;;;;16.70;100.00;101708.19;5075211;28;20376;-69
2023/09/06 02:29:30;;;;;;;17.58;5.95;;;;;;;16.71;100.00;101707.25;5075269;28;20378;-68
2023/09/06 02:31:56;;;;;;;15.88;5.60;;;;;;;16.65;100.00;101712.66;5075131;28;20036;-68
2023/09/06 02:34:21;;;;;;;19.60;6.15;;;;;;;16.58;100.00;101713.59;5074996;28;20020;-69
2023/09/06 02:36:46;;;;;;;17.13;5.47;;;;;;;16.61;100.00;101710.03;5075232;28;20032;-68
2023/09/06 02:39:13;;;;;;;18.05;6.05;;;;;;;16.53;100.00;101710.97;5075025;28;20036;-68
2023/09/06 02:41:38;;;;;;;17.77;5.82;;;;;;;16.51;100.00;101711.88;5074700;28;20132;-69
2023/09/06 02:44:05;;;;;;;15.63;5.57;;;;;;;16.34;100.00;101720.88;5075136;28;20056;-68
2023/09/06 02:46:33;;;;;;;17.90;5.68;;;;;;;16.26;100.00;101722.69;5074821;28;20383;-68
2023/09/06 02:49:01;;;;;;;17.20;6.20;;;;;;;16.32;100.00;101722.63;5074765;28;20032;-68
2023/09/06 02:51:29;;;;;;;16.98;5.90;;;;;;;16.32;100.00;101717.31;5074902;28;20135;-68
2023/09/06 02:53:56;;;;;;;16.00;5.80;;;;;;;16.32;100.00;101721.75;5074926;28;20028;-68
2023/09/06 02:56:22;;;;;;;17.00;5.90;;;;;;;16.34;100.00;101718.19;5073456;28;20111;-68
2023/09/06 02:58:48;;;;;;;16.45;6.00;;;;;;;16.36;100.00;101720.84;5074712;28;20115;-68
2023/09/06 03:01:19;;;;;;;20.27;6.00;;;;;;;16.36;100.00;101718.19;5074583;28;20116;-68
2023/09/06 03:03:51;;;;;;;18.02;6.45;;;;;;;16.34;100.00;101722.66;5074455;28;20039;-68
2023/09/06 03:06:18;;;;;;;17.05;6.10;;;;;;;16.29;100.00;101728.00;5074434;28;20048;-68
2023/09/06 03:08:46;;;;;;;19.00;5.95;;;;;;;16.24;100.00;101729.81;5074585;28;20039;-68
2023/09/06 03:11:14;;;;;;;18.90;5.80;;;;;;;16.13;100.00;101720.97;5074187;28;20039;-70
2023/09/06 03:13:41;;;;;;;15.20;5.10;;;;;;;16.02;100.00;101724.59;5074365;28;20252;-70
2023/09/06 03:16:07;;;;;;;15.18;5.18;;;;;;;15.94;100.00;101721.03;5074441;28;20099;-70
2023/09/06 03:18:32;;;;;;;14.32;5.55;;;;;;;15.88;100.00;101721.06;5074341;28;20100;-69
2023/09/06 03:21:04;;;;;;;17.80;6.47;;;;;;;15.82;100.00;101716.66;5074259;28;20025;-70
2023/09/06 03:23:29;;;;;;;18.23;6.75;;;;;;;15.81;100.00;101722.00;5071263;28;20043;-69
2023/09/06 03:25:55;;;;;;;17.95;6.55;;;;;;;15.81;100.00;101727.31;5074429;28;20387;-69
2023/09/06 03:28:21;;;;;;;18.38;5.95;;;;;;;15.82;100.00;101724.66;5074002;28;20021;-69
2023/09/06 03:30:49;;;;;;;16.77;5.95;;;;;;;15.82;100.00;101734.44;5073776;28;20486;-70
2023/09/06 03:33:15;;;;;;;17.40;6.28;;;;;;;15.71;100.00;101722.88;5073931;28;20040;-70
2023/09/06 03:35:45;;;;;;;17.67;5.90;;;;;;;15.60;100.00;101737.13;5074039;28;20032;-70
2023/09/06 03:38:10;;;;;;;19.42;6.03;;;;;;;15.61;100.00;101732.66;5074051;28;20032;-70
2023/09/06 03:40:36;;;;;;;17.98;6.15;;;;;;;15.58;100.00;101740.69;5073569;28;20044;-70
2023/09/06 03:43:06;;;;;;;17.67;6.70;;;;;;;15.49;100.00;101736.25;5073727;28;20056;-69
2023/09/06 03:45:32;;;;;;;18.10;5.80;;;;;;;15.52;100.00;101736.25;5073795;28;20024;-70
2023/09/06 03:47:58;;;;;;;18.92;6.40;;;;;;;15.47;100.00;101740.72;5073648;28;20157;-69
2023/09/06 03:50:27;;;;;;;19.55;6.63;;;;;;;15.45;100.00;101734.47;5073750;28;20028;-69
2023/09/06 03:52:53;;;;;;;20.02;7.05;;;;;;;15.35;100.00;101730.97;5073622;28;20035;-69
2023/09/06 03:55:19;;;;;;;18.55;6.85;;;;;;;15.47;100.00;101735.38;5073467;28;20039;-67
2023/09/06 03:57:46;;;;;;;18.20;6.40;;;;;;;15.41;100.00;101741.59;5073687;28;20044;-69
2023/09/06 04:00:26;;;;;;;17.08;6.55;;;;;;;15.38;100.00;101748.69;5073611;28;20038;-71
2023/09/06 04:02:53;;;;;;;18.92;6.63;;;;;;;15.41;100.00;101749.59;5072534;28;20055;-71
2023/09/06 04:05:25;;;;;;;18.83;6.65;;;;;;;15.31;100.00;101751.38;5073331;28;20039;-71
2023/09/06 04:07:56;;;;;;;19.13;6.67;;;;;;;15.20;100.00;101752.28;5073184;28;20036;-68
2023/09/06 04:10:36;;;;;;;19.75;6.97;;;;;;;15.27;100.00;101748.72;5073281;28;20055;-71
2023/09/06 04:13:06;;;;;;;18.05;6.10;;;;;;;15.14;100.00;101753.16;5070261;28;20517;-70
2023/09/06 04:15:35;;;;;;;17.42;5.93;;;;;;;15.14;100.00;101754.06;5073359;28;20033;-70
2023/09/06 04:18:02;;;;;;;17.02;5.80;;;;;;;15.14;100.00;101755.81;5073140;28;20020;-67
2023/09/06 04:20:35;;;;;;;19.10;6.30;;;;;;;15.08;100.00;101755.84;5073223;28;20078;-71
2023/09/06 04:23:01;;;;;;;19.98;6.25;;;;;;;15.15;100.00;101762.94;5070196;28;20024;-69
2023/09/06 04:25:27;;;;;;;19.40;6.50;;;;;;;15.09;100.00;101763.81;5072917;28;20482;-66
2023/09/06 04:27:54;;;;;;;17.35;6.00;;;;;;;15.10;100.00;101762.94;5073090;28;20426;-68
2023/09/06 04:30:24;;;;;;;16.92;5.85;;;;;;;15.01;100.00;101762.91;5071748;28;20050;-66
2023/09/06 04:32:51;;;;;;;18.73;6.20;;;;;;;14.94;100.00;101761.13;5072897;28;20086;-62
2023/09/06 04:35:17;;;;;;;18.45;6.70;;;;;;;14.96;100.00;101765.59;5072760;28;20075;-63
2023/09/06 04:37:42;;;;;;;21.05;7.30;;;;;;;14.92;100.00;101768.25;5073003;28;20479;-63
2023/09/06 04:40:11;;;;;;;18.88;6.38;;;;;;;14.84;100.00;101765.59;5071327;28;20102;-64
2023/09/06 04:42:40;;;;;;;18.45;6.68;;;;;;;14.84;100.00;101768.25;5070890;28;20152;-67
2023/09/06 04:45:09;;;;;;;18.25;6.63;;;;;;;14.82;100.00;101767.34;5072907;28;20029;-64
2023/09/06 04:47:35;;;;;;;18.67;7.32;;;;;;;14.80;100.00;101772.66;5072637;28;20100;-69
2023/09/06 04:50:00;;;;;;;19.75;7.88;;;;;;;14.72;100.00;101770.88;5072825;28;20163;-70
2023/09/06 04:52:27;;;;;;;19.40;8.63;;;;;;;14.73;100.00;101778.84;5072897;28;20064;-71
2023/09/06 04:54:53;;;;;;;20.13;8.85;;;;;;;14.73;100.00;101778.84;5072452;28;20039;-69
2023/09/06 04:57:18;;;;;;;21.05;9.30;;;;;;;14.74;100.00;101779.78;5072616;28;20123;-70
2023/09/06 04:59:44;;;;;;;18.90;8.25;;;;;;;14.73;100.00;101788.63;5072688;28;20032;-69
2023/09/06 05:02:09;;;;;;;18.23;7.28;;;;;;;14.68;100.00;101785.06;5072559;28;20035;-69
2023/09/06 05:04:36;;;;;;;19.00;7.85;;;;;;;14.63;100.00;101783.28;5071448;28;20025;-69
2023/09/06 05:07:03;;;;;;;19.70;8.40;;;;;;;14.61;100.00;101779.72;5071397;28;20458;-69
2023/09/06 05:09:28;;;;;;;19.50;8.48;;;;;;;14.63;100.00;101782.38;5072547;28;20494;-69
2023/09/06 05:11:53;;;;;;;21.35;8.60;;;;;;;14.61;100.00;101786.78;5072272;28;20033;-69
2023/09/06 05:14:19;;;;;;;20.80;8.50;;;;;;;14.68;100.00;101790.38;5072551;28;20035;-69
2023/09/06 05:16:44;;;;;;;19.92;9.23;;;;;;;14.76;100.00;101793.94;5072418;28;20427;-69
2023/09/06 05:19:10;;;;;;;20.10;9.25;;;;;;;14.80;100.00;101798.41;5072258;28;20021;-70
2023/09/06 05:21:35;;;;;;;19.73;8.88;;;;;;;14.88;100.00;101801.06;5072781;28;20025;-69
2023/09/06 05:24:00;;;;;;;22.35;8.70;;;;;;;14.78;100.00;101797.50;5072484;28;20460;-69
2023/09/06 05:26:26;;;;;;;21.50;8.57;;;;;;;14.85;100.00;101804.59;5072356;28;20119;-69
2023/09/06 05:28:51;;;;;;;21.63;8.60;;;;;;;14.89;100.00;101806.38;5072293;28;20021;-69
2023/09/06 05:31:18;;;;;;;21.48;9.10;;;;;;;14.97;100.00;101807.31;5071954;28;20056;-67
2023/09/06 05:33:44;;;;;;;21.17;9.02;;;;;;;14.99;100.00;101805.53;5070957;28;20036;-66
2023/09/06 05:36:09;;;;;;;21.15;8.52;;;;;;;15.09;100.00;101803.75;5073234;28;20352;-63
2023/09/06 05:38:35;;;;;;;20.83;9.00;;;;;;;15.13;100.00;101812.63;5072133;28;20032;-66
2023/09/06 05:41:00;;;;;;;20.65;8.90;;;;;;;15.16;100.00;101810.00;5071583;28;20049;-63
2023/09/06 05:43:25;;;;;;;22.55;8.82;;;;;;;15.24;100.00;101808.19;5072114;28;20064;-65
2023/09/06 05:45:51;;;;;;;22.00;8.82;;;;;;;15.25;100.00;101809.97;5071844;28;20032;-62
2023/09/06 05:48:16;;;;;;;21.23;8.52;;;;;;;15.24;100.00;101807.31;5072158;28;20078;-66
2023/09/06 05:50:42;;;;;;;21.30;8.77;;;;;;;15.31;100.00;101803.78;5070581;28;20090;-60
2023/09/06 05:53:07;;;;;;;22.55;9.00;;;;;;;15.33;100.00;101815.31;5073185;28;20038;-60
2023/09/06 05:55:32;;;;;;;21.58;9.07;;;;;;;15.33;100.00;101812.63;5075844;28;20067;-59
2023/09/06 05:57:58;;;;;;;23.10;9.52;;;;;;;15.36;100.00;101809.97;5075622;28;20078;-60
2023/09/06 06:00:26;;;;;;;20.20;8.93;;;;;;;15.39;100.00;101811.75;5076038;28;20032;-61
2023/09/06 06:02:51;;;;;;;21.58;9.40;;;;;;;15.40;100.00;101819.75;5075567;28;20109;-63
2023/09/06 06:05:18;;;;;;;23.27;9.50;;;;;;;15.52;100.00;101817.09;5074976;28;20116;-64
2023/09/06 06:07:44;;;;;;;20.95;9.90;;;;;;;15.62;100.00;101814.41;5075638;28;20416;-64
2023/09/06 06:10:09;;;;;;;21.15;9.13;;;;;;;15.67;100.00;101813.50;5075089;28;20108;-62
2023/09/06 06:12:37;;;;;;;21.08;10.32;;;;;;;15.85;100.00;101817.06;5071267;28;20044;-60
2023/09/06 06:15:03;;;;;;;20.80;9.88;;;;;;;15.82;100.00;101820.63;5075421;28;20035;-61
2023/09/06 06:17:28;;;;;;;21.85;10.55;;;;;;;15.90;100.00;101817.97;5074814;28;20028;-67
2023/09/06 06:19:54;;;;;;;24.38;12.15;;;;;;;16.03;100.00;101825.03;5075140;28;20029;-65
2023/09/06 06:22:19;;;;;;;22.60;11.60;;;;;;;16.13;100.00;101827.66;5075219;28;20028;-63
2023/09/06 06:24:46;;;;;;;21.50;10.38;;;;;;;16.20;100.00;101829.41;5075435;28;20178;-63
2023/09/06 06:27:12;;;;;;;23.30;11.35;;;;;;;16.27;100.00;101831.16;5075175;28;20032;-60
2023/09/06 06:29:38;;;;;;;22.80;11.30;;;;;;;16.32;100.00;101824.03;5074781;28;20024;-65
2023/09/06 06:32:04;;;;;;;21.92;11.65;;;;;;;16.37;100.00;101827.56;5074811;28;20038;-62
2023/09/06 06:34:29;;;;;;;22.08;11.15;;;;;;;16.48;100.00;101832.84;5074741;28;20035;-64
2023/09/06 06:36:55;;;;;;;24.48;13.35;;;;;;;16.58;100.00;101839.03;5090854;28;20037;-60
2023/09/06 06:39:20;;;;;;;23.58;11.68;;;;;;;16.63;100.00;101836.34;5074942;28;20029;-63
2023/09/06 06:41:46;;;;;;;22.67;12.18;;;;;;;16.71;100.00;101830.06;5070071;28;20129;-65
2023/09/06 06:44:11;;;;;;;22.40;12.63;;;;;;;16.77;100.00;101838.94;5074933;28;20379;-66
2023/09/06 06:46:38;;;;;;;24.00;13.60;;;;;;;16.84;100.00;101843.34;5074751;28;20024;-65
2023/09/06 06:49:04;;;;;;;24.13;13.02;;;;;;;16.94;100.00;101852.25;5074757;28;20028;-67
2023/09/06 06:51:40;;;;;;;26.38;14.05;;;;;;;17.03;100.00;101844.16;5074764;28;20127;-65
2023/09/06 06:54:06;;;;;;;23.50;13.70;;;;;;;17.10;100.00;101853.03;5074167;28;20029;-64
2023/09/06 06:56:31;;;;;;;24.20;15.48;;;;;;;17.20;100.00;101860.09;5074742;28;20475;-63
2023/09/06 06:58:57;;;;;;;23.73;15.45;;;;;;;17.27;100.00;101853.81;5074624;28;20060;-60
2023/09/06 07:01:24;;;;;;;25.20;14.70;;;;;;;17.31;100.00;101852.84;5074769;28;20043;-68
2023/09/06 07:03:49;;;;;;;24.75;14.65;;;;;;;17.43;100.00;101850.09;5074102;28;20036;-71
2023/09/06 07:06:15;;;;;;;23.20;14.55;;;;;;;17.48;100.00;101859.88;5074117;28;20033;-67
2023/09/06 07:08:40;;;;;;;24.77;15.20;;;;;;;17.57;100.00;101857.09;5074314;28;20025;-68
2023/09/06 07:11:06;;;;;;;25.30;15.85;;;;;;;17.65;100.00;101854.34;5074086;28;20101;-76
2023/09/06 07:13:33;;;;;;;25.73;15.57;;;;;;;17.78;100.00;101856.91;5089882;28;20044;-67
2023/09/06 07:15:58;;;;;;;23.85;14.70;;;;;;;17.87;100.00;101853.25;5074084;28;20045;-71
2023/09/06 07:18:24;;;;;;;23.52;14.63;;;;;;;18.02;100.00;101846.03;5069778;28;20029;-71
2023/09/06 07:20:49;;;;;;;24.88;13.88;;;;;;;18.08;100.00;101849.50;5089923;28;20032;-71
2023/09/06 07:23:15;;;;;;;24.58;14.50;;;;;;;18.16;100.00;101851.19;5073965;28;20036;-68
2023/09/06 07:25:47;;;;;;;23.65;13.50;;;;;;;18.27;100.00;101850.16;5073964;28;20032;-67
2023/09/06 07:28:15;;;;;;;23.48;13.38;;;;;;;18.33;100.00;101845.66;5072771;28;20218;-68
2023/09/06 07:30:44;;;;;;;22.17;12.73;;;;;;;18.44;100.00;101851.78;5073308;28;20037;-70
2023/09/06 07:33:09;;;;;;;22.88;12.27;;;;;;;18.57;100.00;101844.47;5085458;28;20365;-70
2023/09/06 07:35:35;;;;;;;22.08;11.60;;;;;;;18.67;100.00;101848.81;5073892;28;20086;-69
2023/09/06 07:38:00;;;;;;;21.63;11.98;;;;;;;18.73;100.00;101847.84;5072389;28;20108;-70
2023/09/06 07:40:26;;;;;;;22.30;11.68;;;;;;;18.80;100.00;101849.53;5073294;28;20056;-65
2023/09/06 07:42:51;;;;;;;21.60;11.38;;;;;;;18.88;100.00;101850.31;5073391;28;20119;-61
2023/09/06 07:45:17;;;;;;;22.98;10.80;;;;;;;18.96;100.00;101847.50;5073487;28;20043;-65
2023/09/06 07:47:43;;;;;;;20.98;9.70;;;;;;;19.06;100.00;101857.22;5073360;28;20020;-66
2023/09/06 07:50:09;;;;;;;20.67;9.65;;;;;;;19.24;100.00;101844.44;5073428;28;20032;-66
2023/09/06 07:52:36;;;;;;;22.23;9.57;;;;;;;19.47;100.00;101858.34;5073664;28;20032;-67
2023/09/06 07:55:02;;;;;;;19.98;8.60;;;;;;;19.88;100.00;101841.56;5073362;28;20103;-67
2023/09/06 07:57:28;;;;;;;19.20;7.50;;;;;;;20.44;100.00;101852.97;5073523;28;20143;-67
2023/09/06 07:59:53;;;;;;;18.80;7.43;;;;;;;20.87;100.00;101852.06;5069291;28;20021;-65
2023/09/06 08:02:18;;;;;;;21.08;7.00;;;;;;;21.03;100.00;101849.91;5068292;28;20082;-67
2023/09/06 08:04:44;;;;;;;18.88;6.47;;;;;;;21.12;100.00;101845.25;5073333;28;20036;-67
2023/09/06 08:07:09;;;;;;;19.83;7.00;;;;;;;21.08;100.00;101855.16;5073027;28;20036;-65
2023/09/06 08:09:35;;;;;;;17.55;6.40;;;;;;;20.97;100.00;101844.69;5073343;28;20119;-67
2023/09/06 08:12:00;;;;;;;18.00;6.72;;;;;;;20.98;100.00;101851.81;5064311;28;20038;-67
2023/09/06 08:14:29;;;;;;;18.52;6.60;;;;;;;21.02;100.00;101855.31;5068988;28;20028;-67
2023/09/06 08:16:55;;;;;;;18.73;6.13;;;;;;;21.12;100.00;101851.50;5068419;28;20027;-74
2023/09/06 08:19:20;;;;;;;17.33;5.80;;;;;;;21.28;100.00;101856.50;5072245;28;20029;-74
2023/09/06 08:21:46;;;;;;;15.77;5.20;;;;;;;21.35;100.00;101853.63;5072144;28;20068;-71
2023/09/06 08:24:11;;;;;;;14.10;4.82;;;;;;;21.50;100.00;101856.84;5070967;28;20036;-64
2023/09/06 08:26:36;;;;;;;19.25;5.28;;;;;;;21.64;100.00;101843.06;5072502;28;20048;-79
2023/09/06 08:29:04;;;;;;;16.92;4.80;;;;;;;21.74;100.00;101850.88;5073232;28;20111;-71
2023/09/06 08:31:29;;;;;;;16.20;4.63;;;;;;;21.82;100.00;101850.66;5069852;28;20092;-72
2023/09/06 08:33:55;;;;;;;15.15;4.72;;;;;;;21.83;100.00;101848.84;5072080;28;20068;-72
2023/09/06 08:36:20;;;;;;;14.93;4.70;;;;;;;21.84;100.00;101839.84;5072063;28;20024;-67
2023/09/06 08:38:46;;;;;;;15.65;4.68;;;;;;;21.99;100.00;101849.31;5073380;28;20070;-64
2023/09/06 08:41:11;;;;;;;16.52;4.93;;;;;;;22.19;100.00;101848.75;5072432;28;20089;-61
2023/09/06 08:43:42;;;;;;;14.80;4.85;;;;;;;22.45;100.00;101851.63;5072514;28;20033;-63
2023/09/06 08:46:18;;;;;;;17.10;5.18;;;;;;;22.61;100.00;101845.75;5072703;28;20071;-64
2023/09/06 08:48:44;;;;;;;16.50;5.18;;;;;;;23.00;100.00;101853.53;5070963;28;20043;-64
2023/09/06 08:51:11;;;;;;;15.20;4.80;;;;;;;23.84;100.00;101854.38;5072711;28;20383;-65
2023/09/06 08:53:40;;;;;;;15.60;4.78;;;;;;;24.94;100.00;101855.72;5072700;28;20086;-65
2023/09/06 08:56:05;;;;;;;13.13;4.38;;;;;;;25.72;100.00;101862.44;5068792;28;20036;-64
2023/09/06 08:58:32;;;;;;;12.07;4.25;;;;;;;26.38;100.00;101856.75;5072448;28;20056;-64
2023/09/06 09:00:58;;;;;;;10.98;4.03;;;;;;;27.15;100.00;101863.09;5072179;28;20082;-62
2023/09/06 09:03:23;;;;;;;13.38;4.25;;;;;;;27.81;100.00;101857.06;5072401;28;20074;-63
2023/09/06 09:05:48;;;;;;;14.38;4.38;;;;;;;28.50;100.00;101849.75;5072596;28;20040;-61
2023/09/06 09:08:14;;;;;;;14.95;4.50;;;;;;;28.93;100.00;101861.91;5067020;28;20191;-63
2023/09/06 09:10:39;;;;;;;15.57;4.20;;;;;;;29.28;100.00;101861.72;5067967;28;20078;-61
2023/09/06 09:13:11;;;;;;;15.27;4.40;;;;;;;29.49;100.00;101865.00;5068343;28;20066;-70
2023/09/06 09:15:36;;;;;;;14.20;4.30;;;;;;;29.60;98.41;101862.53;5067265;28;20368;-67
2023/09/06 09:18:12;;;;;;;11.25;4.18;;;;;;;29.87;100.00;101862.72;5069035;28;20040;-71
2023/09/06 09:20:41;;;;;;;12.88;4.47;;;;;;;30.20;96.84;101867.06;5065090;28;20111;-74
2023/09/06 09:23:16;;;;;;;13.15;4.15;;;;;;;30.31;88.25;101863.66;5067993;28;20031;-68
2023/09/06 09:25:49;;;;;;;14.52;4.00;;;;;;;30.45;86.93;101860.09;5064475;28;20115;-71
2023/09/06 09:28:16;;;;;;;10.70;3.65;;;;;;;30.85;79.29;101868.41;5065857;28;20032;-72
2023/09/06 09:30:41;;;;;;;13.23;4.25;;;;;;;30.70;76.69;101863.97;5072245;28;20032;-70
2023/09/06 09:33:07;;;;;;;14.75;4.15;;;;;;;29.75;79.99;101855.25;5072686;28;20528;-71
2023/09/06 09:35:34;;;;;;;14.27;4.05;;;;;;;28.99;95.66;101859.72;5071993;28;20017;-77
2023/09/06 09:38:01;;;;;;;16.45;4.10;;;;;;;28.40;97.46;101853.94;5066753;28;20028;-69
2023/09/06 09:40:32;;;;;;;13.85;4.18;;;;;;;28.34;100.00;101860.59;5071361;28;20513;-68
2023/09/06 09:43:02;;;;;;;15.40;4.38;;;;;;;28.81;100.00;101855.34;5069954;28;20052;-70
2023/09/06 09:45:30;;;;;;;15.32;4.35;;;;;;;29.96;83.58;101849.53;5075948;28;20025;-69
2023/09/06 09:47:57;;;;;;;15.23;4.25;;;;;;;31.27;74.12;101855.63;5075935;28;20036;-70
2023/09/06 09:50:25;;;;;;;14.30;4.45;;;;;;;32.04;67.52;101851.28;5075865;28;20476;-70
2023/09/06 09:52:51;;;;;;;14.68;4.30;;;;;;;32.53;63.62;101847.78;5076021;28;20056;-69
2023/09/06 09:55:20;;;;;;;15.20;4.40;;;;;;;32.58;61.29;101847.47;5075853;28;20412;-70
2023/09/06 09:57:46;;;;;;;13.15;4.40;;;;;;;32.13;60.54;101853.44;5075936;28;20034;-71
2023/09/06 10:00:17;;;;;;;12.38;4.18;;;;;;;32.19;60.79;101850.25;5075790;28;20107;-71
2023/09/06 10:02:43;;;;;;;17.77;4.30;;;;;;;32.67;61.74;101850.41;5072414;28;20036;-71
2023/09/06 10:05:19;;;;;;;13.13;4.25;;;;;;;32.91;62.55;101846.84;5071478;28;20028;-70
2023/09/06 10:07:46;;;;;;;13.38;4.38;;;;;;;32.99;59.66;101847.13;5072503;28;20033;-69
2023/09/06 10:10:12;;;;;;;15.00;4.53;;;;;;;33.21;57.11;101848.28;5075487;28;20074;-70
2023/09/06 10:12:45;;;;;;;16.00;4.20;;;;;;;34.03;59.28;101850.16;5075555;28;20025;-70
2023/09/06 10:15:13;;;;;;;14.55;4.20;;;;;;;35.34;54.91;101853.16;5087139;28;20448;-72
2023/09/06 10:17:40;;;;;;;14.25;4.10;;;;;;;35.99;51.07;101847.59;5075516;28;20032;-70
2023/09/06 10:20:12;;;;;;;15.93;4.30;;;;;;;36.91;49.15;101845.81;5075287;28;20025;-71
2023/09/06 10:22:47;;;;;;;12.82;4.10;;;;;;;37.96;48.90;101850.59;5075246;28;20040;-70
2023/09/06 10:25:15;;;;;;;15.15;4.03;;;;;;;38.59;44.30;101849.03;5072060;28;20028;-72
2023/09/06 10:27:59;;;;;;;11.65;3.80;;;;;;;38.91;44.53;101844.94;5071159;28;20028;-69
2023/09/06 10:30:48;;;;;;;13.38;3.80;;;;;;;38.52;42.20;101839.66;5072982;28;20025;-69
2023/09/06 10:33:41;;;;;;;14.27;4.00;;;;;;;38.28;42.20;101840.22;5071594;28;20028;-67
2023/09/06 10:36:15;;;;;;;13.93;4.05;;;;;;;38.49;42.10;101840.84;5074458;28;20154;-70
2023/09/06 10:38:52;;;;;;;12.85;3.95;;;;;;;38.72;43.08;101843.19;5074652;28;20111;-74
2023/09/06 10:41:18;;;;;;;14.77;3.97;;;;;;;39.16;40.88;101842.47;5070735;28;20040;-61
2023/09/06 10:44:00;;;;;;;13.55;3.70;;;;;;;39.22;42.17;101842.72;5075040;28;20032;-65
2023/09/06 10:46:36;;;;;;;12.45;3.88;;;;;;;39.38;38.87;101838.38;5072773;28;20021;-68
2023/09/06 10:49:13;;;;;;;11.18;3.70;;;;;;;39.36;39.90;101837.66;5074985;28;20020;-69
2023/09/06 10:51:54;;;;;;;13.57;3.63;;;;;;;39.87;40.19;101826.81;5071674;28;20116;-72
2023/09/06 10:54:22;;;;;;;12.68;3.80;;;;;;;40.08;37.47;101820.94;5073728;28;20372;-72
2023/09/06 10:56:57;;;;;;;10.60;3.60;;;;;;;40.18;38.11;101820.78;5074789;28;20034;-66
2023/09/06 10:59:23;;;;;;;11.13;3.80;;;;;;;39.99;37.43;101820.00;5074897;28;20043;-61
2023/09/06 11:02:26;;;;;;;13.25;3.80;;;;;;;40.54;37.90;101815.94;5074713;28;20025;-72
2023/09/06 11:05:09;;;;;;;10.63;3.70;;;;;;;40.53;37.74;101819.78;5072139;28;20029;-73
2023/09/06 11:07:45;;;;;;;12.77;3.60;;;;;;;40.17;37.88;101819.94;5072378;28;20094;-76
2023/09/06 11:10:11;;;;;;;15.02;4.10;;;;;;;40.14;37.81;101820.25;5075078;28;20047;-69
2023/09/06 11:12:37;;;;;;;12.82;4.00;;;;;;;40.85;36.44;101823.66;5073925;28;20040;-70